createdAt,value
2019-03-05T00:00:12.727Z,19.61
2019-03-05T00:01:12.648Z,19.58
2019-03-05T00:02:12.833Z,19.58
2019-03-05T00:03:12.940Z,19.6
2019-03-05T00:04:12.771Z,19.6
2019-03-05T00:05:12.707Z,19.6
2019-03-05T00:06:12.781Z,19.58
2019-03-05T00:07:12.880Z,19.61
2019-03-05T00:08:12.768Z,19.57
2019-03-05T00:09:12.559Z,19.56
2019-03-05T00:10:12.752Z,19.54
2019-03-05T00:11:12.739Z,19.56
2019-03-05T00:12:12.590Z,19.56
2019-03-05T00:13:12.707Z,19.54
2019-03-05T00:14:12.914Z,19.56
2019-03-05T00:15:12.518Z,19.56
2019-03-05T00:16:12.695Z,19.56
2019-03-05T00:17:12.718Z,19.54
2019-03-05T00:18:12.686Z,19.52
2019-03-05T00:19:12.725Z,19.52
2019-03-05T00:20:12.882Z,19.53
2019-03-05T00:21:13.065Z,19.49
2019-03-05T00:22:13.166Z,19.5
2019-03-05T00:23:12.865Z,19.52
2019-03-05T00:24:12.699Z,19.53
2019-03-05T00:25:12.770Z,19.52
2019-03-05T00:26:12.737Z,19.52
2019-03-05T00:27:12.602Z,19.49
2019-03-05T00:28:12.712Z,19.46
2019-03-05T00:29:12.744Z,19.49
2019-03-05T00:30:12.608Z,19.5
2019-03-05T00:31:12.716Z,19.49
2019-03-05T00:32:12.888Z,19.47
2019-03-05T00:33:12.620Z,19.52
2019-03-05T00:34:12.696Z,19.5
2019-03-05T00:35:12.754Z,19.45
2019-03-05T00:36:12.671Z,19.45
2019-03-05T00:37:12.816Z,19.46
2019-03-05T00:38:12.854Z,19.43
2019-03-05T00:39:12.655Z,19.46
2019-03-05T00:40:12.795Z,19.45
2019-03-05T00:41:12.935Z,19.45
2019-03-05T00:42:12.699Z,19.43
2019-03-05T00:43:12.993Z,19.47
2019-03-05T00:44:12.596Z,19.43
2019-03-05T00:45:12.685Z,19.45
2019-03-05T00:46:12.868Z,19.43
2019-03-05T00:47:12.609Z,19.43
2019-03-05T00:48:12.685Z,19.43
2019-03-05T00:49:12.745Z,19.42
2019-03-05T00:50:12.654Z,19.42
2019-03-05T00:51:25.501Z,19.4
2019-03-05T00:52:12.811Z,19.4
2019-03-05T00:53:12.621Z,19.4
2019-03-05T00:54:12.668Z,19.4
2019-03-05T00:55:12.728Z,19.4
2019-03-05T00:56:12.614Z,19.4
2019-03-05T00:57:12.695Z,19.4
2019-03-05T00:58:12.821Z,19.39
2019-03-05T00:59:12.620Z,19.4
2019-03-05T01:00:12.663Z,19.39
2019-03-05T01:01:12.809Z,19.4
2019-03-05T01:02:12.614Z,19.4
2019-03-05T01:03:12.772Z,19.39
2019-03-05T01:04:13.207Z,19.37
2019-03-05T01:05:12.693Z,19.39
2019-03-05T01:06:12.654Z,19.37
2019-03-05T01:07:12.846Z,19.37
2019-03-05T01:08:12.666Z,19.35
2019-03-05T01:09:12.702Z,19.36
2019-03-05T01:10:12.842Z,19.35
2019-03-05T01:11:12.916Z,19.35
2019-03-05T01:12:12.662Z,19.33
2019-03-05T01:13:12.866Z,19.32
2019-03-05T01:14:12.645Z,19.35
2019-03-05T01:15:12.707Z,19.32
2019-03-05T01:16:12.881Z,19.33
2019-03-05T01:17:12.611Z,19.32
2019-03-05T01:18:12.705Z,19.32
2019-03-05T01:19:12.843Z,19.32
2019-03-05T01:20:12.661Z,19.32
2019-03-05T01:21:12.722Z,19.33
2019-03-05T01:22:12.581Z,19.3
2019-03-05T01:23:12.717Z,19.29
2019-03-05T01:24:13.099Z,19.29
2019-03-05T01:25:12.573Z,19.29
2019-03-05T01:26:13.014Z,19.3
2019-03-05T01:27:12.853Z,19.29
2019-03-05T01:28:12.627Z,19.32
2019-03-05T01:29:12.762Z,19.29
2019-03-05T01:30:12.851Z,19.3
2019-03-05T01:31:12.683Z,19.29
2019-03-05T01:32:12.778Z,19.29
2019-03-05T01:33:12.738Z,19.33
2019-03-05T01:34:12.602Z,19.29
2019-03-05T01:35:12.762Z,19.27
2019-03-05T01:36:12.755Z,19.3
2019-03-05T01:37:12.611Z,19.29
2019-03-05T01:38:12.715Z,19.27
2019-03-05T01:39:12.757Z,19.29
2019-03-05T01:40:12.729Z,19.29
2019-03-05T01:41:12.675Z,19.29
2019-03-05T01:42:12.846Z,19.29
2019-03-05T01:43:12.568Z,19.25
2019-03-05T01:44:12.721Z,19.26
2019-03-05T01:45:12.927Z,19.26
2019-03-05T01:46:12.615Z,19.25
2019-03-05T01:47:12.891Z,19.23
2019-03-05T01:48:12.608Z,19.23
2019-03-05T01:49:12.638Z,19.25
2019-03-05T01:50:12.792Z,19.23
2019-03-05T01:51:12.658Z,19.23
2019-03-05T01:52:12.632Z,19.23
2019-03-05T01:53:12.791Z,19.25
2019-03-05T01:54:12.682Z,19.23
2019-03-05T01:55:12.723Z,19.23
2019-03-05T01:56:12.830Z,19.22
2019-03-05T01:57:12.633Z,19.23
2019-03-05T01:58:12.634Z,19.23
2019-03-05T01:59:12.674Z,19.22
2019-03-05T02:00:12.702Z,19.19
2019-03-05T02:01:12.614Z,19.23
2019-03-05T02:02:12.816Z,19.2
2019-03-05T02:03:12.625Z,19.18
2019-03-05T02:04:12.635Z,19.2
2019-03-05T02:05:12.742Z,19.2
2019-03-05T02:06:12.643Z,19.2
2019-03-05T02:07:12.623Z,19.2
2019-03-05T02:08:12.791Z,19.19
2019-03-05T02:09:13.015Z,19.16
2019-03-05T02:10:12.733Z,19.19
2019-03-05T02:11:12.794Z,19.19
2019-03-05T02:12:12.596Z,19.19
2019-03-05T02:13:12.640Z,19.18
2019-03-05T02:14:12.870Z,19.18
2019-03-05T02:15:12.684Z,19.18
2019-03-05T02:16:12.734Z,19.19
2019-03-05T02:17:12.735Z,19.16
2019-03-05T02:18:12.697Z,19.18
2019-03-05T02:19:12.733Z,19.18
2019-03-05T02:20:12.578Z,19.15
2019-03-05T02:21:12.617Z,19.19
2019-03-05T02:22:12.704Z,19.18
2019-03-05T02:23:12.533Z,19.15
2019-03-05T02:24:12.692Z,19.18
2019-03-05T02:25:12.717Z,19.15
2019-03-05T02:26:12.554Z,19.15
2019-03-05T02:27:12.748Z,19.15
2019-03-05T02:28:12.728Z,19.15
2019-03-05T02:29:12.505Z,19.16
2019-03-05T02:30:12.639Z,19.16
2019-03-05T02:31:12.696Z,19.13
2019-03-05T02:32:12.582Z,19.13
2019-03-05T02:33:13.012Z,19.12
2019-03-05T02:34:12.808Z,19.11
2019-03-05T02:35:12.718Z,19.11
2019-03-05T02:36:12.688Z,19.11
2019-03-05T02:37:12.742Z,19.11
2019-03-05T02:38:12.685Z,19.12
2019-03-05T02:39:12.729Z,19.09
2019-03-05T02:40:12.730Z,19.09
2019-03-05T02:41:12.574Z,19.09
2019-03-05T02:42:12.748Z,19.11
2019-03-05T02:43:12.709Z,19.12
2019-03-05T02:44:12.640Z,19.12
2019-03-05T02:45:12.782Z,19.11
2019-03-05T02:46:12.798Z,19.12
2019-03-05T02:47:12.866Z,19.12
2019-03-05T02:48:12.737Z,19.12
2019-03-05T02:49:12.840Z,19.08
2019-03-05T02:50:12.639Z,19.12
2019-03-05T02:51:12.773Z,19.09
2019-03-05T02:52:12.734Z,19.11
2019-03-05T02:53:12.646Z,19.08
2019-03-05T02:54:12.739Z,19.11
2019-03-05T02:55:12.533Z,19.11
2019-03-05T02:56:12.676Z,19.09
2019-03-05T02:57:12.811Z,19.09
2019-03-05T02:58:12.555Z,19.08
2019-03-05T02:59:12.737Z,19.08
2019-03-05T03:00:12.795Z,19.08
2019-03-05T03:01:12.633Z,19.06
2019-03-05T03:02:12.669Z,19.09
2019-03-05T03:03:12.729Z,19.08
2019-03-05T03:04:12.663Z,19.06
2019-03-05T03:05:12.593Z,19.06
2019-03-05T03:06:12.784Z,19.06
2019-03-05T03:07:12.711Z,19.06
2019-03-05T03:08:12.663Z,19.05
2019-03-05T03:09:12.761Z,19.05
2019-03-05T03:10:12.638Z,19.03
2019-03-05T03:11:12.724Z,19.03
2019-03-05T03:12:13.031Z,19.02
2019-03-05T03:13:12.660Z,19.03
2019-03-05T03:14:12.664Z,19.03
2019-03-05T03:15:13.007Z,19.03
2019-03-05T03:16:12.645Z,19.02
2019-03-05T03:17:12.787Z,19.03
2019-03-05T03:18:12.877Z,19.02
2019-03-05T03:19:12.694Z,19.03
2019-03-05T03:20:12.744Z,19.02
2019-03-05T03:21:12.639Z,19.02
2019-03-05T03:22:12.746Z,18.99
2019-03-05T03:23:12.806Z,18.99
2019-03-05T03:24:12.580Z,19.01
2019-03-05T03:25:12.805Z,19.02
2019-03-05T03:26:12.744Z,19.01
2019-03-05T03:27:12.513Z,19.01
2019-03-05T03:28:12.718Z,18.99
2019-03-05T03:29:12.667Z,18.99
2019-03-05T03:30:12.660Z,19.01
2019-03-05T03:31:12.772Z,18.98
2019-03-05T03:32:12.930Z,18.98
2019-03-05T03:33:12.816Z,18.98
2019-03-05T03:34:12.783Z,18.98
2019-03-05T03:35:12.972Z,18.98
2019-03-05T03:36:12.557Z,19.01
2019-03-05T03:37:12.772Z,18.99
2019-03-05T03:38:12.583Z,18.98
2019-03-05T03:39:12.622Z,18.95
2019-03-05T03:40:12.825Z,18.98
2019-03-05T03:41:12.617Z,18.98
2019-03-05T03:42:12.769Z,18.98
2019-03-05T03:43:12.800Z,18.95
2019-03-05T03:44:12.569Z,18.95
2019-03-05T03:45:12.800Z,18.97
2019-03-05T03:46:12.772Z,18.97
2019-03-05T03:47:12.721Z,18.94
2019-03-05T03:48:12.655Z,18.97
2019-03-05T03:49:12.697Z,18.97
2019-03-05T03:50:12.619Z,18.95
2019-03-05T03:51:12.871Z,18.95
2019-03-05T03:52:12.455Z,18.97
2019-03-05T03:53:12.694Z,18.95
2019-03-05T03:54:13.011Z,18.97
2019-03-05T03:55:12.876Z,18.97
2019-03-05T03:56:12.622Z,18.95
2019-03-05T03:57:12.660Z,18.94
2019-03-05T03:58:12.783Z,18.92
2019-03-05T03:59:12.812Z,18.92
2019-03-05T04:00:12.719Z,18.94
2019-03-05T04:01:12.564Z,18.92
2019-03-05T04:02:12.675Z,18.94
2019-03-05T04:03:12.693Z,18.95
2019-03-05T04:04:12.559Z,18.94
2019-03-05T04:05:12.706Z,18.92
2019-03-05T04:06:12.754Z,18.91
2019-03-05T04:07:12.590Z,18.91
2019-03-05T04:08:12.958Z,18.91
2019-03-05T04:09:12.772Z,18.9
2019-03-05T04:10:12.678Z,18.91
2019-03-05T04:11:12.706Z,18.92
2019-03-05T04:12:12.558Z,18.92
2019-03-05T04:13:12.631Z,18.92
2019-03-05T04:14:12.735Z,18.9
2019-03-05T04:15:12.926Z,18.87
2019-03-05T04:16:13.027Z,18.9
2019-03-05T04:17:12.777Z,18.88
2019-03-05T04:18:12.826Z,18.9
2019-03-05T04:19:12.890Z,18.9
2019-03-05T04:20:12.529Z,18.91
2019-03-05T04:21:12.627Z,18.91
2019-03-05T04:22:12.661Z,18.91
2019-03-05T04:23:12.562Z,18.9
2019-03-05T04:24:12.715Z,18.91
2019-03-05T04:25:12.616Z,18.9
2019-03-05T04:26:12.543Z,18.88
2019-03-05T04:27:12.640Z,18.87
2019-03-05T04:28:12.840Z,18.9
2019-03-05T04:29:12.634Z,18.91
2019-03-05T04:30:12.712Z,18.88
2019-03-05T04:31:12.655Z,18.87
2019-03-05T04:32:12.546Z,18.87
2019-03-05T04:33:12.716Z,18.87
2019-03-05T04:34:12.730Z,18.85
2019-03-05T04:35:12.488Z,18.87
2019-03-05T04:36:12.722Z,18.87
2019-03-05T04:37:13.244Z,18.84
2019-03-05T04:38:12.598Z,18.87
2019-03-05T04:39:12.674Z,18.87
2019-03-05T04:40:12.548Z,18.87
2019-03-05T04:41:12.868Z,18.85
2019-03-05T04:42:12.790Z,18.85
2019-03-05T04:43:12.634Z,18.87
2019-03-05T04:44:12.635Z,18.84
2019-03-05T04:45:12.721Z,18.85
2019-03-05T04:46:12.713Z,18.85
2019-03-05T04:47:12.578Z,18.85
2019-03-05T04:48:12.776Z,18.87
2019-03-05T04:49:12.588Z,18.85
2019-03-05T04:50:12.620Z,18.84
2019-03-05T04:51:12.544Z,18.83
2019-03-05T04:52:12.569Z,18.83
2019-03-05T04:53:12.662Z,18.81
2019-03-05T04:54:12.486Z,18.85
2019-03-05T04:55:12.618Z,18.83
2019-03-05T04:56:12.641Z,18.84
2019-03-05T04:57:12.631Z,18.84
2019-03-05T04:58:12.651Z,18.83
2019-03-05T04:59:12.682Z,18.81
2019-03-05T05:00:12.519Z,18.83
2019-03-05T05:01:12.637Z,18.81
2019-03-05T05:02:12.705Z,18.81
2019-03-05T05:03:12.477Z,18.78
2019-03-05T05:04:12.593Z,18.78
2019-03-05T05:05:12.723Z,18.81
2019-03-05T05:06:12.565Z,18.81
2019-03-05T05:07:12.666Z,18.8
2019-03-05T05:08:12.574Z,18.8
2019-03-05T05:09:12.559Z,18.8
2019-03-05T05:10:12.799Z,18.78
2019-03-05T05:11:12.505Z,18.78
2019-03-05T05:12:12.592Z,18.78
2019-03-05T05:13:12.708Z,18.8
2019-03-05T05:14:12.545Z,18.78
2019-03-05T05:15:12.638Z,18.78
2019-03-05T05:16:12.871Z,18.8
2019-03-05T05:17:12.565Z,18.75
2019-03-05T05:18:12.716Z,18.78
2019-03-05T05:19:12.708Z,18.8
2019-03-05T05:20:12.548Z,18.78
2019-03-05T05:21:12.612Z,18.78
2019-03-05T05:22:12.719Z,18.77
2019-03-05T05:23:12.728Z,18.77
2019-03-05T05:24:12.624Z,18.78
2019-03-05T05:25:12.409Z,18.78
2019-03-05T05:26:12.570Z,18.8
2019-03-05T05:27:12.642Z,18.75
2019-03-05T05:28:12.577Z,18.77
2019-03-05T05:29:12.667Z,18.77
2019-03-05T05:30:12.626Z,18.74
2019-03-05T05:31:12.484Z,18.75
2019-03-05T05:32:12.632Z,18.77
2019-03-05T05:33:12.670Z,18.77
2019-03-05T05:34:12.630Z,18.77
2019-03-05T05:35:12.655Z,18.77
2019-03-05T05:36:12.819Z,18.75
2019-03-05T05:37:12.510Z,18.75
2019-03-05T05:38:12.707Z,18.78
2019-03-05T05:39:12.704Z,18.77
2019-03-05T05:40:12.538Z,18.77
2019-03-05T05:41:12.653Z,18.74
2019-03-05T05:42:12.980Z,18.75
2019-03-05T05:43:12.584Z,18.75
2019-03-05T05:44:12.658Z,18.77
2019-03-05T05:45:12.528Z,18.75
2019-03-05T05:46:12.485Z,18.75
2019-03-05T05:47:12.718Z,18.74
2019-03-05T05:48:12.520Z,18.74
2019-03-05T05:49:12.664Z,18.74
2019-03-05T05:50:12.665Z,18.73
2019-03-05T05:51:12.611Z,18.74
2019-03-05T05:52:12.565Z,18.71
2019-03-05T05:53:12.697Z,18.71
2019-03-05T05:54:12.565Z,18.74
2019-03-05T05:55:12.584Z,18.74
2019-03-05T05:56:12.700Z,18.71
2019-03-05T05:57:12.540Z,18.74
2019-03-05T05:58:12.669Z,18.73
2019-03-05T05:59:12.722Z,18.73
2019-03-05T06:00:12.576Z,18.74
2019-03-05T06:01:12.606Z,18.73
2019-03-05T06:02:12.735Z,18.74
2019-03-05T06:03:12.576Z,18.71
2019-03-05T06:04:12.809Z,18.71
2019-03-05T06:05:12.791Z,18.7
2019-03-05T06:06:12.599Z,18.71
2019-03-05T06:07:12.637Z,18.71
2019-03-05T06:08:12.451Z,18.73
2019-03-05T06:09:12.709Z,18.73
2019-03-05T06:10:12.762Z,18.74
2019-03-05T06:11:12.678Z,18.73
2019-03-05T06:12:12.658Z,18.71
2019-03-05T06:13:12.691Z,18.74
2019-03-05T06:14:12.460Z,18.73
2019-03-05T06:15:12.632Z,18.71
2019-03-05T06:16:12.693Z,18.71
2019-03-05T06:17:12.519Z,18.73
2019-03-05T06:18:12.656Z,18.71
2019-03-05T06:19:12.593Z,18.71
2019-03-05T06:20:12.517Z,18.7
2019-03-05T06:21:12.691Z,18.62
2019-03-05T06:22:12.682Z,18.56
2019-03-05T06:23:12.541Z,18.5
2019-03-05T06:24:12.666Z,18.43
2019-03-05T06:25:13.293Z,18.35
2019-03-05T06:26:12.559Z,18.29
2019-03-05T06:27:12.616Z,18.28
2019-03-05T06:28:12.560Z,18.22
2019-03-05T06:29:12.540Z,18.18
2019-03-05T06:30:12.661Z,18.15
2019-03-05T06:31:12.510Z,18.09
2019-03-05T06:32:12.545Z,18.05
2019-03-05T06:33:12.625Z,18.04
2019-03-05T06:34:12.430Z,18.05
2019-03-05T06:35:12.675Z,18.05
2019-03-05T06:36:12.625Z,18.05
2019-03-05T06:37:12.654Z,18.08
2019-03-05T06:38:12.643Z,18.11
2019-03-05T06:39:12.674Z,18.12
2019-03-05T06:40:12.457Z,18.16
2019-03-05T06:41:12.539Z,18.19
2019-03-05T06:42:12.683Z,18.22
2019-03-05T06:43:12.445Z,18.25
2019-03-05T06:44:12.512Z,18.26
2019-03-05T06:45:12.710Z,18.3
2019-03-05T06:46:12.521Z,18.33
2019-03-05T06:47:12.535Z,18.39
2019-03-05T06:48:12.702Z,18.43
2019-03-05T06:49:12.667Z,18.46
2019-03-05T06:50:12.464Z,18.47
2019-03-05T06:51:12.632Z,18.49
2019-03-05T06:52:12.636Z,18.5
2019-03-05T06:53:12.519Z,18.56
2019-03-05T06:54:12.625Z,18.57
2019-03-05T06:55:12.403Z,18.58
2019-03-05T06:56:12.791Z,18.6
2019-03-05T06:57:12.662Z,18.64
2019-03-05T06:58:12.709Z,18.68
2019-03-05T06:59:12.606Z,18.7
2019-03-05T07:00:12.638Z,18.73
2019-03-05T07:01:12.548Z,18.74
2019-03-05T07:02:12.467Z,18.74
2019-03-05T07:03:12.652Z,18.77
2019-03-05T07:04:12.634Z,18.83
2019-03-05T07:05:12.549Z,18.83
2019-03-05T07:06:12.686Z,18.83
2019-03-05T07:07:12.495Z,18.87
2019-03-05T07:08:12.520Z,18.88
2019-03-05T07:09:12.986Z,18.91
2019-03-05T07:10:12.530Z,18.94
2019-03-05T07:11:12.533Z,18.97
2019-03-05T07:12:12.729Z,19.01
2019-03-05T07:13:12.549Z,18.99
2019-03-05T07:14:12.544Z,19.02
2019-03-05T07:15:12.861Z,19.02
2019-03-05T07:16:12.542Z,19.05
2019-03-05T07:17:12.518Z,19.05
2019-03-05T07:18:12.449Z,19.09
2019-03-05T07:19:12.528Z,19.09
2019-03-05T07:20:12.569Z,19.09
2019-03-05T07:21:12.668Z,19.13
2019-03-05T07:22:12.542Z,19.13
2019-03-05T07:23:12.527Z,19.13
2019-03-05T07:24:12.659Z,19.15
2019-03-05T07:25:12.679Z,19.16
2019-03-05T07:26:12.524Z,19.19
2019-03-05T07:27:12.783Z,19.16
2019-03-05T07:28:12.503Z,19.2
2019-03-05T07:29:13.060Z,19.22
2019-03-05T07:30:12.342Z,19.22
2019-03-05T07:31:12.517Z,19.26
2019-03-05T07:32:12.555Z,19.23
2019-03-05T07:33:12.468Z,19.27
2019-03-05T07:34:12.571Z,19.29
2019-03-05T07:35:12.547Z,19.29
2019-03-05T07:36:12.446Z,19.29
2019-03-05T07:37:12.555Z,19.3
2019-03-05T07:38:12.606Z,19.33
2019-03-05T07:39:12.565Z,19.33
2019-03-05T07:40:12.668Z,19.35
2019-03-05T07:41:12.708Z,19.33
2019-03-05T07:42:12.452Z,19.36
2019-03-05T07:43:12.642Z,19.37
2019-03-05T07:44:12.778Z,19.37
2019-03-05T07:45:12.446Z,19.4
2019-03-05T07:46:12.615Z,19.4
2019-03-05T07:47:12.616Z,19.39
2019-03-05T07:48:12.466Z,19.37
2019-03-05T07:49:12.578Z,19.37
2019-03-05T07:50:12.649Z,19.37
2019-03-05T07:51:12.469Z,19.39
2019-03-05T07:52:12.566Z,19.4
2019-03-05T07:53:12.629Z,19.42
2019-03-05T07:54:12.520Z,19.43
2019-03-05T07:55:14.493Z,19.4
2019-03-05T07:56:12.609Z,19.43
2019-03-05T07:57:12.462Z,19.45
2019-03-05T07:58:12.599Z,19.46
2019-03-05T07:59:12.600Z,19.49
2019-03-05T08:00:12.433Z,19.53
2019-03-05T08:01:22.967Z,19.52
2019-03-05T08:02:12.706Z,19.57
2019-03-05T08:03:12.587Z,19.57
2019-03-05T08:04:12.609Z,19.58
2019-03-05T08:05:12.632Z,19.58
2019-03-05T08:06:12.437Z,19.63
2019-03-05T08:07:12.589Z,19.65
2019-03-05T08:08:12.653Z,19.64
2019-03-05T08:09:12.451Z,19.68
2019-03-05T08:10:12.690Z,19.67
2019-03-05T08:11:12.631Z,19.68
2019-03-05T08:12:12.593Z,19.7
2019-03-05T08:13:12.766Z,19.7
2019-03-05T08:14:12.444Z,19.7
2019-03-05T08:15:12.494Z,19.73
2019-03-05T08:16:12.629Z,19.74
2019-03-05T08:17:12.500Z,19.73
2019-03-05T08:18:12.496Z,19.77
2019-03-05T08:19:12.581Z,19.75
2019-03-05T08:20:12.447Z,19.75
2019-03-05T08:21:12.494Z,19.75
2019-03-05T08:22:12.888Z,19.77
2019-03-05T08:23:12.443Z,19.78
2019-03-05T08:24:12.472Z,19.8
2019-03-05T08:25:12.620Z,19.8
2019-03-05T08:26:12.429Z,19.82
2019-03-05T08:27:12.501Z,19.81
2019-03-05T08:28:12.671Z,19.81
2019-03-05T08:29:12.449Z,19.82
2019-03-05T08:30:15.426Z,19.84
2019-03-05T08:31:12.726Z,19.82
2019-03-05T08:32:12.408Z,19.82
2019-03-05T08:33:12.493Z,19.85
2019-03-05T08:34:12.812Z,19.84
2019-03-05T08:35:12.819Z,19.85
2019-03-05T08:36:12.508Z,19.85
2019-03-05T08:37:13.853Z,19.85
2019-03-05T08:38:12.438Z,19.89
2019-03-05T08:39:12.522Z,19.88
2019-03-05T08:40:12.667Z,19.85
2019-03-05T08:41:12.433Z,19.88
2019-03-05T08:42:12.500Z,19.89
2019-03-05T08:43:12.584Z,19.91
2019-03-05T08:44:12.511Z,19.85
2019-03-05T08:45:12.528Z,19.91
2019-03-05T08:46:12.729Z,19.88
2019-03-05T08:47:12.517Z,19.88
2019-03-05T08:48:12.518Z,19.84
2019-03-05T08:49:12.657Z,19.86
2019-03-05T08:50:12.481Z,19.88
2019-03-05T08:51:12.505Z,19.88
2019-03-05T08:52:12.660Z,19.85
2019-03-05T08:53:12.548Z,19.86
2019-03-05T08:54:12.566Z,19.85
2019-03-05T08:55:12.703Z,19.88
2019-03-05T08:56:12.678Z,19.86
2019-03-05T08:57:12.519Z,19.88
2019-03-05T08:58:12.654Z,19.92
2019-03-05T08:59:12.519Z,19.92
2019-03-05T09:00:12.526Z,19.93
2019-03-05T09:01:12.626Z,19.96
2019-03-05T09:02:12.574Z,19.95
2019-03-05T09:03:12.546Z,19.98
2019-03-05T09:04:12.625Z,19.98
2019-03-05T09:05:12.475Z,19.98
2019-03-05T09:06:12.820Z,19.99
2019-03-05T09:07:12.692Z,20.01
2019-03-05T09:08:12.399Z,20.01
2019-03-05T09:09:12.499Z,19.98
2019-03-05T09:10:12.592Z,19.98
2019-03-05T09:11:12.464Z,20.01
2019-03-05T09:12:12.494Z,19.98
2019-03-05T09:13:12.617Z,19.96
2019-03-05T09:14:12.418Z,19.98
2019-03-05T09:15:12.508Z,19.98
2019-03-05T09:16:12.802Z,19.99
2019-03-05T09:17:12.400Z,19.98
2019-03-05T09:18:13.425Z,19.98
2019-03-05T09:19:12.366Z,20.01
2019-03-05T09:20:12.460Z,19.99
2019-03-05T09:21:12.520Z,20.02
2019-03-05T09:22:12.692Z,20.01
2019-03-05T09:23:12.524Z,20.01
2019-03-05T09:24:12.534Z,20.01
2019-03-05T09:25:12.362Z,20.04
2019-03-05T09:26:12.486Z,20.01
2019-03-05T09:27:12.549Z,20.07
2019-03-05T09:28:12.321Z,20.04
2019-03-05T09:29:12.563Z,20.07
2019-03-05T09:30:12.608Z,20.08
2019-03-05T09:31:12.449Z,20.08
2019-03-05T09:32:12.527Z,20.08
2019-03-05T09:33:12.610Z,20.07
2019-03-05T09:34:12.377Z,20.05
2019-03-05T09:35:12.519Z,20.08
2019-03-05T09:36:12.564Z,20.08
2019-03-05T09:37:12.430Z,20.09
2019-03-05T09:38:12.785Z,20.11
2019-03-05T09:39:12.687Z,20.12
2019-03-05T09:40:12.858Z,20.18
2019-03-05T09:41:12.475Z,20.15
2019-03-05T09:42:12.615Z,20.2
2019-03-05T09:43:12.531Z,20.2
2019-03-05T09:44:12.530Z,20.2
2019-03-05T09:45:12.465Z,20.2
2019-03-05T09:46:12.523Z,20.25
2019-03-05T09:47:12.609Z,20.23
2019-03-05T09:48:12.466Z,20.26
2019-03-05T09:49:12.370Z,20.26
2019-03-05T09:50:12.568Z,20.27
2019-03-05T09:51:12.381Z,20.29
2019-03-05T09:52:12.541Z,20.32
2019-03-05T09:53:12.604Z,20.33
2019-03-05T09:54:12.489Z,20.33
2019-03-05T09:55:12.461Z,20.35
2019-03-05T09:56:12.583Z,20.36
2019-03-05T09:57:12.468Z,20.35
2019-03-05T09:58:12.448Z,20.39
2019-03-05T09:59:12.624Z,20.39
2019-03-05T10:00:12.500Z,20.4
2019-03-05T10:01:12.667Z,20.4
2019-03-05T10:02:12.614Z,20.42
2019-03-05T10:03:12.450Z,20.42
2019-03-05T10:04:12.466Z,20.4
2019-03-05T10:05:12.637Z,20.44
2019-03-05T10:06:12.470Z,20.48
2019-03-05T10:07:19.693Z,20.48
2019-03-05T10:08:12.609Z,20.47
2019-03-05T10:09:12.463Z,20.5
2019-03-05T10:10:12.535Z,20.48
2019-03-05T10:11:12.648Z,20.5
2019-03-05T10:12:12.470Z,20.5
2019-03-05T10:13:13.743Z,20.47
2019-03-05T10:14:12.582Z,20.51
2019-03-05T10:15:12.464Z,20.5
2019-03-05T10:16:12.444Z,20.5
2019-03-05T10:17:12.632Z,20.5
2019-03-05T10:18:13.564Z,20.51
2019-03-05T10:19:12.522Z,20.51
2019-03-05T10:20:12.592Z,20.51
2019-03-05T10:21:12.490Z,20.53
2019-03-05T10:22:12.762Z,20.53
2019-03-05T10:23:12.690Z,20.55
2019-03-05T10:24:12.853Z,20.6
2019-03-05T10:25:13.267Z,20.57
2019-03-05T10:26:12.493Z,20.6
2019-03-05T10:27:12.677Z,20.6
2019-03-05T10:28:12.390Z,20.61
2019-03-05T10:29:12.561Z,20.6
2019-03-05T10:30:12.673Z,20.63
2019-03-05T10:31:12.463Z,20.64
2019-03-05T10:32:12.535Z,20.64
2019-03-05T10:33:12.338Z,20.66
2019-03-05T10:34:12.363Z,20.67
2019-03-05T10:35:12.489Z,20.7
2019-03-05T10:36:12.601Z,20.72
2019-03-05T10:37:19.381Z,20.72
2019-03-05T10:38:12.618Z,20.7
2019-03-05T10:39:12.387Z,20.74
2019-03-05T10:40:12.384Z,20.74
2019-03-05T10:41:12.531Z,20.77
2019-03-05T10:42:12.603Z,20.75
2019-03-05T10:43:12.469Z,20.75
2019-03-05T10:44:12.466Z,20.8
2019-03-05T10:45:12.601Z,20.8
2019-03-05T10:46:12.383Z,20.81
2019-03-05T10:47:12.597Z,20.81
2019-03-05T10:48:12.575Z,20.81
2019-03-05T10:49:12.377Z,20.81
2019-03-05T10:50:16.027Z,20.82
2019-03-05T10:51:12.562Z,20.85
2019-03-05T10:52:12.308Z,20.85
2019-03-05T10:53:12.608Z,20.87
2019-03-05T10:54:12.516Z,20.87
2019-03-05T10:55:12.352Z,20.84
2019-03-05T10:56:12.502Z,20.85
2019-03-05T10:57:12.540Z,20.87
2019-03-05T10:58:12.487Z,20.87
2019-03-05T10:59:12.484Z,20.87
2019-03-05T11:00:12.549Z,20.88
2019-03-05T11:01:12.473Z,20.88
2019-03-05T11:02:12.547Z,20.87
2019-03-05T11:03:12.505Z,20.87
2019-03-05T11:04:12.441Z,20.85
2019-03-05T11:05:12.605Z,20.88
2019-03-05T11:06:12.418Z,20.87
2019-03-05T11:07:12.397Z,20.92
2019-03-05T11:08:12.575Z,20.91
2019-03-05T11:09:12.618Z,20.97
2019-03-05T11:10:12.396Z,20.97
2019-03-05T11:11:14.501Z,20.98
2019-03-05T11:12:12.441Z,21.01
2019-03-05T11:13:12.466Z,21.01
2019-03-05T11:14:12.741Z,21.03
2019-03-05T11:15:12.380Z,21.03
2019-03-05T11:16:12.464Z,21.02
2019-03-05T11:17:12.599Z,21.03
2019-03-05T11:18:12.509Z,21.03
2019-03-05T11:19:12.452Z,21.05
2019-03-05T11:20:12.604Z,21.05
2019-03-05T11:21:12.439Z,21.05
2019-03-05T11:22:12.477Z,21.08
2019-03-05T11:23:12.709Z,21.08
2019-03-05T11:24:12.465Z,21.08
2019-03-05T11:25:12.544Z,21.09
2019-03-05T11:26:12.526Z,21.09
2019-03-05T11:27:12.616Z,21.12
2019-03-05T11:28:12.532Z,21.14
2019-03-05T11:29:12.670Z,21.11
2019-03-05T11:30:12.648Z,21.14
2019-03-05T11:31:12.581Z,21.12
2019-03-05T11:32:12.404Z,21.12
2019-03-05T11:33:12.460Z,21.14
2019-03-05T11:34:13.599Z,21.15
2019-03-05T11:35:12.329Z,21.16
2019-03-05T11:36:12.519Z,21.18
2019-03-05T11:37:12.560Z,21.16
2019-03-05T11:38:12.405Z,21.18
2019-03-05T11:39:13.312Z,21.18
2019-03-05T11:40:21.585Z,21.21
2019-03-05T11:41:12.296Z,21.22
2019-03-05T11:42:12.575Z,21.23
2019-03-05T11:43:13.149Z,21.26
2019-03-05T11:44:12.330Z,21.25
2019-03-05T11:45:12.523Z,21.23
2019-03-05T11:46:12.536Z,21.22
2019-03-05T11:47:12.479Z,21.23
2019-03-05T11:48:12.557Z,21.23
2019-03-05T11:49:12.783Z,21.25
2019-03-05T11:50:12.460Z,21.25
2019-03-05T11:51:12.533Z,21.25
2019-03-05T11:52:12.501Z,21.23
2019-03-05T11:53:12.409Z,21.25
2019-03-05T11:54:12.473Z,21.26
2019-03-05T11:55:12.762Z,21.27
2019-03-05T11:56:12.393Z,21.27
2019-03-05T11:57:12.613Z,21.26
2019-03-05T11:58:12.533Z,21.27
2019-03-05T11:59:12.506Z,21.3
2019-03-05T12:00:12.520Z,21.27
2019-03-05T12:01:12.598Z,21.3
2019-03-05T12:02:22.389Z,21.33
2019-03-05T12:03:12.435Z,21.34
2019-03-05T12:04:12.378Z,21.34
2019-03-05T12:05:12.586Z,21.37
2019-03-05T12:06:12.548Z,21.37
2019-03-05T12:07:12.587Z,21.37
2019-03-05T12:08:12.583Z,21.39
2019-03-05T12:09:30.950Z,21.4
2019-03-05T12:10:12.600Z,21.4
2019-03-05T12:11:12.466Z,21.39
2019-03-05T12:12:12.529Z,21.4
2019-03-05T12:13:14.984Z,21.42
2019-03-05T12:14:12.513Z,21.37
2019-03-05T12:15:12.531Z,21.36
2019-03-05T12:16:12.471Z,21.33
2019-03-05T12:17:12.468Z,21.33
2019-03-05T12:18:12.545Z,21.33
2019-03-05T12:19:12.372Z,21.32
2019-03-05T12:20:12.461Z,21.32
2019-03-05T12:21:12.542Z,21.33
2019-03-05T12:22:12.304Z,21.3
2019-03-05T12:23:12.515Z,21.3
2019-03-05T12:24:12.634Z,21.29
2019-03-05T12:25:12.381Z,21.29
2019-03-05T12:26:12.558Z,21.27
2019-03-05T12:27:12.781Z,21.3
2019-03-05T12:28:12.342Z,21.32
2019-03-05T12:29:12.427Z,21.34
2019-03-05T12:30:12.477Z,21.36
2019-03-05T12:31:12.385Z,21.39
2019-03-05T12:32:15.627Z,21.4
2019-03-05T12:33:12.540Z,21.39
2019-03-05T12:34:12.469Z,21.42
2019-03-05T12:35:12.550Z,21.43
2019-03-05T12:36:12.329Z,21.4
2019-03-05T12:37:12.348Z,21.42
2019-03-05T12:38:12.544Z,21.42
2019-03-05T12:39:12.418Z,21.43
2019-03-05T12:40:12.414Z,21.43
2019-03-05T12:41:12.741Z,21.43
2019-03-05T12:42:12.337Z,21.42
2019-03-05T12:43:12.366Z,21.44
2019-03-05T12:44:12.513Z,21.44
2019-03-05T12:45:12.378Z,21.46
2019-03-05T12:46:12.536Z,21.43
2019-03-05T12:47:12.500Z,21.44
2019-03-05T12:48:12.580Z,21.44
2019-03-05T12:49:12.387Z,21.47
2019-03-05T12:50:12.502Z,21.47
2019-03-05T12:51:12.384Z,21.46
2019-03-05T12:52:12.421Z,21.46
2019-03-05T12:53:12.625Z,21.49
2019-03-05T12:54:12.456Z,21.47
2019-03-05T12:55:13.655Z,21.5